sensor_id;sensor_type;location;lat;lon;timestamp;P1;durP1;ratioP1;P2;durP2;ratioP2
3873;SDS011;1952;50.872;6.692;2022-10-31T00:30:01;10.20;;;8.63;;
3873;SDS011;1952;50.872;6.692;2022-10-31T00:32:29;9.03;;;7.80;;
3873;SDS011;1952;50.872;6.692;2022-10-31T00:34:57;11.17;;;8.40;;
3873;SDS011;1952;50.872;6.692;2022-10-31T00:37:26;9.53;;;7.67;;
3873;SDS011;1952;50.872;6.692;2022-10-31T00:39:54;8.70;;;7.80;;
3873;SDS011;1952;50.872;6.692;2022-10-31T00:42:22;14.63;;;8.67;;
3873;SDS011;1952;50.872;6.692;2022-10-31T00:44:50;9.93;;;7.10;;
3873;SDS011;1952;50.872;6.692;2022-10-31T00:47:19;11.30;;;7.53;;
3873;SDS011;1952;50.872;6.692;2022-10-31T00:49:47;9.23;;;8.20;;
3873;SDS011;1952;50.872;6.692;2022-10-31T00:52:15;12.77;;;7.77;;
3873;SDS011;1952;50.872;6.692;2022-10-31T00:54:48;10.53;;;7.47;;
3873;SDS011;1952;50.872;6.692;2022-10-31T00:57:16;8.47;;;7.00;;
3873;SDS011;1952;50.872;6.692;2022-10-31T00:59:44;8.00;;;7.07;;
3873;SDS011;1952;50.872;6.692;2022-10-31T01:02:12;10.43;;;8.83;;
3873;SDS011;1952;50.872;6.692;2022-10-31T01:04:46;9.20;;;5.83;;
3873;SDS011;1952;50.872;6.692;2022-10-31T01:07:14;8.10;;;7.30;;
3873;SDS011;1952;50.872;6.692;2022-10-31T01:09:42;8.40;;;7.60;;
3873;SDS011;1952;50.872;6.692;2022-10-31T01:12:38;13.37;;;8.00;;
3873;SDS011;1952;50.872;6.692;2022-10-31T01:15:09;8.67;;;6.97;;
3873;SDS011;1952;50.872;6.692;2022-10-31T01:17:43;12.80;;;7.57;;
3873;SDS011;1952;50.872;6.692;2022-10-31T01:20:17;8.70;;;6.70;;
3873;SDS011;1952;50.872;6.692;2022-10-31T01:22:50;9.50;;;6.70;;
3873;SDS011;1952;50.872;6.692;2022-10-31T01:25:23;7.50;;;6.80;;
3873;SDS011;1952;50.872;6.692;2022-10-31T01:27:52;7.03;;;6.10;;
3873;SDS011;1952;50.872;6.692;2022-10-31T01:30:25;6.60;;;5.47;;
3873;SDS011;1952;50.872;6.692;2022-10-31T01:33:07;8.10;;;6.70;;
3873;SDS011;1952;50.872;6.692;2022-10-31T01:35:51;9.50;;;6.03;;
3873;SDS011;1952;50.872;6.692;2022-10-31T01:38:25;11.73;;;5.87;;
3873;SDS011;1952;50.872;6.692;2022-10-31T01:40:53;9.00;;;7.07;;
3873;SDS011;1952;50.872;6.692;2022-10-31T01:43:21;8.13;;;7.27;;
3873;SDS011;1952;50.872;6.692;2022-10-31T01:45:54;10.10;;;6.97;;
3873;SDS011;1952;50.872;6.692;2022-10-31T01:48:24;7.90;;;6.00;;
3873;SDS011;1952;50.872;6.692;2022-10-31T01:51:03;7.60;;;6.63;;
3873;SDS011;1952;50.872;6.692;2022-10-31T01:53:32;10.70;;;7.57;;
3873;SDS011;1952;50.872;6.692;2022-10-31T01:56:05;12.47;;;7.70;;
3873;SDS011;1952;50.872;6.692;2022-10-31T01:58:39;12.30;;;7.10;;
3873;SDS011;1952;50.872;6.692;2022-10-31T02:01:07;10.20;;;7.43;;
3873;SDS011;1952;50.872;6.692;2022-10-31T02:03:36;7.10;;;6.43;;
3873;SDS011;1952;50.872;6.692;2022-10-31T02:06:13;8.23;;;6.80;;
3873;SDS011;1952;50.872;6.692;2022-10-31T02:08:51;14.40;;;7.80;;
3873;SDS011;1952;50.872;6.692;2022-10-31T02:11:19;9.57;;;7.33;;
3873;SDS011;1952;50.872;6.692;2022-10-31T02:13:47;9.00;;;7.17;;
3873;SDS011;1952;50.872;6.692;2022-10-31T02:16:15;10.03;;;7.33;;
3873;SDS011;1952;50.872;6.692;2022-10-31T02:18:43;8.20;;;7.30;;
3873;SDS011;1952;50.872;6.692;2022-10-31T02:21:14;8.17;;;7.27;;
3873;SDS011;1952;50.872;6.692;2022-10-31T02:23:53;6.87;;;6.13;;
3873;SDS011;1952;50.872;6.692;2022-10-31T02:26:49;6.70;;;6.00;;
3873;SDS011;1952;50.872;6.692;2022-10-31T02:29:31;7.73;;;6.40;;
3873;SDS011;1952;50.872;6.692;2022-10-31T02:32:29;11.33;;;7.80;;
3873;SDS011;1952;50.872;6.692;2022-10-31T02:35:13;7.47;;;6.70;;
3873;SDS011;1952;50.872;6.692;2022-10-31T02:37:57;7.33;;;6.00;;
3873;SDS011;1952;50.872;6.692;2022-10-31T02:40:33;6.40;;;5.80;;
3873;SDS011;1952;50.872;6.692;2022-10-31T02:43:12;8.77;;;6.47;;
3873;SDS011;1952;50.872;6.692;2022-10-31T02:45:45;8.73;;;7.00;;
3873;SDS011;1952;50.872;6.692;2022-10-31T02:48:19;8.73;;;7.30;;
3873;SDS011;1952;50.872;6.692;2022-10-31T02:50:52;10.10;;;6.60;;
3873;SDS011;1952;50.872;6.692;2022-10-31T02:53:31;7.20;;;6.50;;
3873;SDS011;1952;50.872;6.692;2022-10-31T02:56:05;7.10;;;6.40;;
3873;SDS011;1952;50.872;6.692;2022-10-31T02:58:35;6.10;;;5.50;;
3873;SDS011;1952;50.872;6.692;2022-10-31T03:04:22;7.60;;;6.50;;
3873;SDS011;1952;50.872;6.692;2022-10-31T03:07:21;7.40;;;6.40;;
3873;SDS011;1952;50.872;6.692;2022-10-31T03:10:03;11.53;;;7.53;;
3873;SDS011;1952;50.872;6.692;2022-10-31T03:12:38;6.50;;;5.90;;
3873;SDS011;1952;50.872;6.692;2022-10-31T03:15:14;8.43;;;6.63;;
3873;SDS011;1952;50.872;6.692;2022-10-31T03:17:50;7.97;;;6.67;;
3873;SDS011;1952;50.872;6.692;2022-10-31T03:20:28;10.60;;;6.90;;
3873;SDS011;1952;50.872;6.692;2022-10-31T03:23:01;12.40;;;7.70;;
3873;SDS011;1952;50.872;6.692;2022-10-31T03:25:35;10.70;;;7.27;;
3873;SDS011;1952;50.872;6.692;2022-10-31T03:28:05;14.70;;;7.40;;
3873;SDS011;1952;50.872;6.692;2022-10-31T03:30:35;8.70;;;7.07;;
3873;SDS011;1952;50.872;6.692;2022-10-31T03:33:05;8.03;;;5.90;;
3873;SDS011;1952;50.872;6.692;2022-10-31T03:35:44;9.90;;;8.40;;
3873;SDS011;1952;50.872;6.692;2022-10-31T03:38:14;9.43;;;7.53;;
3873;SDS011;1952;50.872;6.692;2022-10-31T03:40:43;10.57;;;6.50;;
3873;SDS011;1952;50.872;6.692;2022-10-31T03:43:15;13.33;;;7.43;;
3873;SDS011;1952;50.872;6.692;2022-10-31T03:45:45;9.43;;;7.87;;
3873;SDS011;1952;50.872;6.692;2022-10-31T03:48:19;12.80;;;7.40;;
3873;SDS011;1952;50.872;6.692;2022-10-31T03:50:52;6.67;;;6.03;;
3873;SDS011;1952;50.872;6.692;2022-10-31T03:53:30;9.40;;;5.73;;
3873;SDS011;1952;50.872;6.692;2022-10-31T03:56:02;7.10;;;6.13;;
3873;SDS011;1952;50.872;6.692;2022-10-31T03:58:36;10.30;;;6.03;;
3873;SDS011;1952;50.872;6.692;2022-10-31T04:01:11;8.10;;;6.27;;
3873;SDS011;1952;50.872;6.692;2022-10-31T04:03:41;6.73;;;5.73;;
3873;SDS011;1952;50.872;6.692;2022-10-31T04:06:12;16.63;;;6.73;;
3873;SDS011;1952;50.872;6.692;2022-10-31T04:08:44;10.20;;;8.33;;
3873;SDS011;1952;50.872;6.692;2022-10-31T04:11:13;8.50;;;7.43;;
3873;SDS011;1952;50.872;6.692;2022-10-31T04:13:46;9.80;;;7.20;;
3873;SDS011;1952;50.872;6.692;2022-10-31T04:16:15;11.70;;;8.07;;
3873;SDS011;1952;50.872;6.692;2022-10-31T04:18:44;12.63;;;8.30;;
3873;SDS011;1952;50.872;6.692;2022-10-31T04:21:13;12.97;;;6.93;;
3873;SDS011;1952;50.872;6.692;2022-10-31T04:23:46;9.20;;;7.50;;
3873;SDS011;1952;50.872;6.692;2022-10-31T04:26:18;10.80;;;7.37;;
3873;SDS011;1952;50.872;6.692;2022-10-31T04:28:46;11.63;;;7.37;;
3873;SDS011;1952;50.872;6.692;2022-10-31T04:31:15;9.43;;;7.90;;
3873;SDS011;1952;50.872;6.692;2022-10-31T04:33:43;9.90;;;7.60;;
3873;SDS011;1952;50.872;6.692;2022-10-31T04:36:12;11.63;;;8.20;;
3873;SDS011;1952;50.872;6.692;2022-10-31T04:38:45;8.87;;;7.37;;
3873;SDS011;1952;50.872;6.692;2022-10-31T04:41:18;6.97;;;6.07;;
3873;SDS011;1952;50.872;6.692;2022-10-31T04:43:51;11.30;;;7.27;;
3873;SDS011;1952;50.872;6.692;2022-10-31T04:46:19;18.00;;;8.37;;
3873;SDS011;1952;50.872;6.692;2022-10-31T04:48:47;9.50;;;7.03;;
3873;SDS011;1952;50.872;6.692;2022-10-31T04:51:16;9.07;;;6.77;;
3873;SDS011;1952;50.872;6.692;2022-10-31T04:53:44;9.93;;;8.60;;
3873;SDS011;1952;50.872;6.692;2022-10-31T04:56:13;11.87;;;6.67;;
3873;SDS011;1952;50.872;6.692;2022-10-31T04:58:45;10.20;;;7.83;;
3873;SDS011;1952;50.872;6.692;2022-10-31T05:01:14;9.90;;;8.03;;
3873;SDS011;1952;50.872;6.692;2022-10-31T05:03:42;12.43;;;8.40;;
3873;SDS011;1952;50.872;6.692;2022-10-31T05:06:40;10.67;;;7.37;;
3873;SDS011;1952;50.872;6.692;2022-10-31T05:09:11;10.23;;;9.10;;
3873;SDS011;1952;50.872;6.692;2022-10-31T05:11:54;11.37;;;8.10;;
3873;SDS011;1952;50.872;6.692;2022-10-31T05:14:29;14.27;;;8.30;;
3873;SDS011;1952;50.872;6.692;2022-10-31T05:17:05;13.43;;;8.83;;
3873;SDS011;1952;50.872;6.692;2022-10-31T05:20:01;9.83;;;7.77;;
3873;SDS011;1952;50.872;6.692;2022-10-31T05:22:47;10.80;;;7.63;;
3873;SDS011;1952;50.872;6.692;2022-10-31T05:25:31;10.40;;;7.40;;
3873;SDS011;1952;50.872;6.692;2022-10-31T05:28:14;11.13;;;8.17;;
3873;SDS011;1952;50.872;6.692;2022-10-31T05:30:45;10.97;;;8.33;;
3873;SDS011;1952;50.872;6.692;2022-10-31T05:33:15;10.50;;;7.10;;
3873;SDS011;1952;50.872;6.692;2022-10-31T05:36:11;10.93;;;7.37;;
3873;SDS011;1952;50.872;6.692;2022-10-31T05:39:04;11.90;;;7.40;;
3873;SDS011;1952;50.872;6.692;2022-10-31T05:41:48;10.77;;;8.50;;
3873;SDS011;1952;50.872;6.692;2022-10-31T05:44:45;11.57;;;7.73;;
3873;SDS011;1952;50.872;6.692;2022-10-31T05:47:23;10.67;;;7.63;;
3873;SDS011;1952;50.872;6.692;2022-10-31T05:49:52;13.13;;;9.20;;
3873;SDS011;1952;50.872;6.692;2022-10-31T05:52:53;11.50;;;8.70;;
3873;SDS011;1952;50.872;6.692;2022-10-31T06:32:45;12.43;;;7.57;;
3873;SDS011;1952;50.872;6.692;2022-10-31T06:35:12;9.13;;;7.30;;
3873;SDS011;1952;50.872;6.692;2022-10-31T06:37:41;8.87;;;6.90;;
3873;SDS011;1952;50.872;6.692;2022-10-31T06:40:13;13.43;;;8.23;;
3873;SDS011;1952;50.872;6.692;2022-10-31T06:42:47;12.37;;;8.17;;
3873;SDS011;1952;50.872;6.692;2022-10-31T06:45:15;8.03;;;7.23;;
3873;SDS011;1952;50.872;6.692;2022-10-31T06:47:51;14.17;;;7.40;;
3873;SDS011;1952;50.872;6.692;2022-10-31T06:50:24;10.37;;;7.23;;
3873;SDS011;1952;50.872;6.692;2022-10-31T06:52:59;8.40;;;7.00;;
3873;SDS011;1952;50.872;6.692;2022-10-31T06:55:31;11.00;;;7.50;;
3873;SDS011;1952;50.872;6.692;2022-10-31T06:58:00;7.80;;;6.70;;
3873;SDS011;1952;50.872;6.692;2022-10-31T07:00:33;8.00;;;7.27;;
3873;SDS011;1952;50.872;6.692;2022-10-31T07:03:09;10.53;;;8.20;;
3873;SDS011;1952;50.872;6.692;2022-10-31T07:05:39;9.53;;;8.03;;
3873;SDS011;1952;50.872;6.692;2022-10-31T07:08:07;9.57;;;7.63;;
3873;SDS011;1952;50.872;6.692;2022-10-31T07:10:42;11.63;;;7.70;;
3873;SDS011;1952;50.872;6.692;2022-10-31T07:13:15;11.63;;;8.90;;
3873;SDS011;1952;50.872;6.692;2022-10-31T07:15:47;19.13;;;7.80;;
3873;SDS011;1952;50.872;6.692;2022-10-31T07:18:17;10.00;;;8.10;;
3873;SDS011;1952;50.872;6.692;2022-10-31T07:20:45;10.27;;;9.10;;
3873;SDS011;1952;50.872;6.692;2022-10-31T07:23:18;9.53;;;7.80;;
3873;SDS011;1952;50.872;6.692;2022-10-31T07:25:54;9.27;;;7.87;;
3873;SDS011;1952;50.872;6.692;2022-10-31T07:28:23;13.40;;;7.17;;
3873;SDS011;1952;50.872;6.692;2022-10-31T07:30:57;9.13;;;7.00;;
3873;SDS011;1952;50.872;6.692;2022-10-31T07:33:26;8.50;;;5.93;;
3873;SDS011;1952;50.872;6.692;2022-10-31T07:35:54;8.00;;;7.07;;
3873;SDS011;1952;50.872;6.692;2022-10-31T07:38:27;8.67;;;6.87;;
3873;SDS011;1952;50.872;6.692;2022-10-31T07:40:55;7.03;;;6.37;;
3873;SDS011;1952;50.872;6.692;2022-10-31T07:43:23;10.73;;;9.20;;
3873;SDS011;1952;50.872;6.692;2022-10-31T07:45:52;7.40;;;6.70;;
3873;SDS011;1952;50.872;6.692;2022-10-31T07:48:27;7.83;;;7.03;;
3873;SDS011;1952;50.872;6.692;2022-10-31T07:50:54;7.50;;;6.80;;
3873;SDS011;1952;50.872;6.692;2022-10-31T07:53:27;7.47;;;6.77;;
3873;SDS011;1952;50.872;6.692;2022-10-31T07:55:55;7.63;;;6.63;;
3873;SDS011;1952;50.872;6.692;2022-10-31T07:58:24;8.83;;;6.50;;
3873;SDS011;1952;50.872;6.692;2022-10-31T08:00:52;12.80;;;7.00;;
3873;SDS011;1952;50.872;6.692;2022-10-31T08:03:20;9.37;;;6.33;;
3873;SDS011;1952;50.872;6.692;2022-10-31T08:05:55;9.90;;;6.27;;
3873;SDS011;1952;50.872;6.692;2022-10-31T08:08:23;8.43;;;7.00;;
3873;SDS011;1952;50.872;6.692;2022-10-31T08:10:58;8.30;;;7.20;;
3873;SDS011;1952;50.872;6.692;2022-10-31T08:13:27;7.90;;;6.50;;
3873;SDS011;1952;50.872;6.692;2022-10-31T08:15:54;7.67;;;6.77;;
3873;SDS011;1952;50.872;6.692;2022-10-31T08:18:34;12.57;;;7.27;;
3873;SDS011;1952;50.872;6.692;2022-10-31T08:21:12;13.43;;;8.03;;
3873;SDS011;1952;50.872;6.692;2022-10-31T08:23:44;10.83;;;7.70;;
3873;SDS011;1952;50.872;6.692;2022-10-31T08:26:12;12.03;;;8.17;;
3873;SDS011;1952;50.872;6.692;2022-10-31T08:28:41;14.10;;;7.97;;
3873;SDS011;1952;50.872;6.692;2022-10-31T08:31:14;10.40;;;7.30;;
3873;SDS011;1952;50.872;6.692;2022-10-31T08:33:47;13.40;;;8.53;;
3873;SDS011;1952;50.872;6.692;2022-10-31T08:36:21;10.00;;;7.20;;
3873;SDS011;1952;50.872;6.692;2022-10-31T08:38:49;15.80;;;9.50;;
3873;SDS011;1952;50.872;6.692;2022-10-31T08:41:23;14.23;;;10.60;;
3873;SDS011;1952;50.872;6.692;2022-10-31T08:43:50;17.17;;;13.23;;
3873;SDS011;1952;50.872;6.692;2022-10-31T08:46:24;18.83;;;15.80;;
3873;SDS011;1952;50.872;6.692;2022-10-31T08:48:52;26.00;;;18.20;;
3873;SDS011;1952;50.872;6.692;2022-10-31T08:51:22;31.57;;;25.20;;
3873;SDS011;1952;50.872;6.692;2022-10-31T08:53:54;28.23;;;21.20;;
3873;SDS011;1952;50.872;6.692;2022-10-31T08:56:22;36.90;;;29.30;;
3873;SDS011;1952;50.872;6.692;2022-10-31T08:58:52;50.57;;;30.10;;
3873;SDS011;1952;50.872;6.692;2022-10-31T09:01:24;38.50;;;26.20;;
3873;SDS011;1952;50.872;6.692;2022-10-31T09:03:53;30.10;;;21.17;;
3873;SDS011;1952;50.872;6.692;2022-10-31T09:06:22;33.50;;;24.13;;
3873;SDS011;1952;50.872;6.692;2022-10-31T09:08:55;35.30;;;20.33;;
3873;SDS011;1952;50.872;6.692;2022-10-31T09:11:29;30.07;;;22.37;;
3873;SDS011;1952;50.872;6.692;2022-10-31T09:13:59;36.30;;;24.93;;
3873;SDS011;1952;50.872;6.692;2022-10-31T09:16:27;29.70;;;22.03;;
3873;SDS011;1952;50.872;6.692;2022-10-31T09:19:00;30.37;;;20.90;;
3873;SDS011;1952;50.872;6.692;2022-10-31T09:21:35;22.80;;;15.00;;
3873;SDS011;1952;50.872;6.692;2022-10-31T09:24:03;32.37;;;16.17;;
3873;SDS011;1952;50.872;6.692;2022-10-31T09:26:32;19.67;;;16.43;;
3873;SDS011;1952;50.872;6.692;2022-10-31T09:29:05;23.53;;;16.60;;
3873;SDS011;1952;50.872;6.692;2022-10-31T09:31:35;28.73;;;17.20;;
3873;SDS011;1952;50.872;6.692;2022-10-31T09:34:08;22.30;;;13.77;;
3873;SDS011;1952;50.872;6.692;2022-10-31T09:36:38;18.93;;;14.50;;
3873;SDS011;1952;50.872;6.692;2022-10-31T09:39:06;20.03;;;13.47;;
3873;SDS011;1952;50.872;6.692;2022-10-31T09:41:39;14.17;;;11.20;;
3873;SDS011;1952;50.872;6.692;2022-10-31T09:44:30;11.90;;;9.97;;
3873;SDS011;1952;50.872;6.692;2022-10-31T09:47:12;17.87;;;10.00;;
3873;SDS011;1952;50.872;6.692;2022-10-31T09:49:53;11.67;;;8.23;;
3873;SDS011;1952;50.872;6.692;2022-10-31T09:52:51;15.23;;;9.87;;
3873;SDS011;1952;50.872;6.692;2022-10-31T09:55:31;14.63;;;8.23;;
3873;SDS011;1952;50.872;6.692;2022-10-31T09:58:08;11.03;;;8.43;;
3873;SDS011;1952;50.872;6.692;2022-10-31T10:00:47;11.03;;;9.10;;
3873;SDS011;1952;50.872;6.692;2022-10-31T10:03:24;9.83;;;8.80;;
3873;SDS011;1952;50.872;6.692;2022-10-31T10:06:14;9.00;;;7.37;;
3873;SDS011;1952;50.872;6.692;2022-10-31T10:08:47;13.10;;;8.77;;
3873;SDS011;1952;50.872;6.692;2022-10-31T10:11:22;12.70;;;9.33;;
3873;SDS011;1952;50.872;6.692;2022-10-31T10:14:16;11.20;;;8.53;;
3873;SDS011;1952;50.872;6.692;2022-10-31T10:17:06;16.13;;;9.33;;
3873;SDS011;1952;50.872;6.692;2022-10-31T10:19:55;8.90;;;7.60;;
3873;SDS011;1952;50.872;6.692;2022-10-31T10:22:30;13.50;;;9.17;;
3873;SDS011;1952;50.872;6.692;2022-10-31T10:25:15;14.43;;;9.00;;
3873;SDS011;1952;50.872;6.692;2022-10-31T10:27:47;14.40;;;9.90;;
3873;SDS011;1952;50.872;6.692;2022-10-31T10:30:19;16.70;;;8.90;;
3873;SDS011;1952;50.872;6.692;2022-10-31T10:32:54;12.80;;;8.57;;
3873;SDS011;1952;50.872;6.692;2022-10-31T10:35:30;10.10;;;8.90;;
3873;SDS011;1952;50.872;6.692;2022-10-31T10:38:08;11.37;;;8.43;;
3873;SDS011;1952;50.872;6.692;2022-10-31T10:40:43;10.50;;;8.50;;
3873;SDS011;1952;50.872;6.692;2022-10-31T10:43:19;9.13;;;8.23;;
3873;SDS011;1952;50.872;6.692;2022-10-31T10:45:50;16.03;;;8.97;;
3873;SDS011;1952;50.872;6.692;2022-10-31T10:48:58;11.93;;;7.47;;
3873;SDS011;1952;50.872;6.692;2022-10-31T10:51:38;9.93;;;6.90;;
3873;SDS011;1952;50.872;6.692;2022-10-31T10:57:28;13.50;;;7.17;;
3873;SDS011;1952;50.872;6.692;2022-10-31T11:00:12;8.90;;;7.20;;
3873;SDS011;1952;50.872;6.692;2022-10-31T11:02:44;12.93;;;7.33;;
3873;SDS011;1952;50.872;6.692;2022-10-31T11:05:21;13.50;;;7.13;;
3873;SDS011;1952;50.872;6.692;2022-10-31T11:07:57;15.53;;;8.33;;
3873;SDS011;1952;50.872;6.692;2022-10-31T11:10:31;12.33;;;7.50;;
3873;SDS011;1952;50.872;6.692;2022-10-31T11:13:06;10.77;;;8.00;;
3873;SDS011;1952;50.872;6.692;2022-10-31T11:15:52;10.70;;;7.30;;
3873;SDS011;1952;50.872;6.692;2022-10-31T11:18:24;13.33;;;8.17;;
3873;SDS011;1952;50.872;6.692;2022-10-31T11:20:56;12.83;;;9.40;;
3873;SDS011;1952;50.872;6.692;2022-10-31T11:23:25;9.13;;;7.20;;
3873;SDS011;1952;50.872;6.692;2022-10-31T11:26:00;9.47;;;8.13;;
3873;SDS011;1952;50.872;6.692;2022-10-31T11:28:31;11.60;;;8.20;;
3873;SDS011;1952;50.872;6.692;2022-10-31T11:31:05;8.83;;;7.73;;
3873;SDS011;1952;50.872;6.692;2022-10-31T11:33:54;9.10;;;7.57;;
3873;SDS011;1952;50.872;6.692;2022-10-31T11:36:30;8.30;;;7.50;;
3873;SDS011;1952;50.872;6.692;2022-10-31T11:39:05;9.27;;;7.60;;
3873;SDS011;1952;50.872;6.692;2022-10-31T11:41:50;11.53;;;8.10;;
3873;SDS011;1952;50.872;6.692;2022-10-31T11:44:27;11.40;;;7.63;;
3873;SDS011;1952;50.872;6.692;2022-10-31T11:46:58;11.73;;;8.67;;
3873;SDS011;1952;50.872;6.692;2022-10-31T11:49:31;8.00;;;7.30;;
3873;SDS011;1952;50.872;6.692;2022-10-31T11:52:12;8.40;;;7.37;;
3873;SDS011;1952;50.872;6.692;2022-10-31T12:40:26;13.70;;;6.63;;
3873;SDS011;1952;50.872;6.692;2022-10-31T12:43:04;8.87;;;6.93;;
3873;SDS011;1952;50.872;6.692;2022-10-31T12:45:44;7.87;;;6.90;;
3873;SDS011;1952;50.872;6.692;2022-10-31T12:48:24;10.03;;;6.90;;
3873;SDS011;1952;50.872;6.692;2022-10-31T12:51:06;11.73;;;7.97;;
3873;SDS011;1952;50.872;6.692;2022-10-31T12:53:47;9.73;;;7.53;;
3873;SDS011;1952;50.872;6.692;2022-10-31T12:56:32;9.73;;;8.07;;
3873;SDS011;1952;50.872;6.692;2022-10-31T12:59:10;9.93;;;8.80;;
3873;SDS011;1952;50.872;6.692;2022-10-31T13:01:53;10.27;;;7.57;;
3873;SDS011;1952;50.872;6.692;2022-10-31T13:04:36;9.50;;;6.97;;
3873;SDS011;1952;50.872;6.692;2022-10-31T13:07:10;9.10;;;7.13;;
3873;SDS011;1952;50.872;6.692;2022-10-31T13:09:42;9.37;;;7.60;;
3873;SDS011;1952;50.872;6.692;2022-10-31T13:12:16;11.03;;;7.33;;
3873;SDS011;1952;50.872;6.692;2022-10-31T13:14:47;9.93;;;8.13;;
3873;SDS011;1952;50.872;6.692;2022-10-31T13:17:26;13.83;;;8.63;;
3873;SDS011;1952;50.872;6.692;2022-10-31T13:20:05;8.70;;;6.83;;
3873;SDS011;1952;50.872;6.692;2022-10-31T13:22:51;10.30;;;7.43;;
3873;SDS011;1952;50.872;6.692;2022-10-31T13:25:23;12.27;;;7.70;;
3873;SDS011;1952;50.872;6.692;2022-10-31T13:27:55;8.90;;;6.97;;
3873;SDS011;1952;50.872;6.692;2022-10-31T13:30:32;9.10;;;7.47;;
3873;SDS011;1952;50.872;6.692;2022-10-31T13:33:06;12.17;;;7.50;;
3873;SDS011;1952;50.872;6.692;2022-10-31T13:35:41;10.97;;;8.63;;
3873;SDS011;1952;50.872;6.692;2022-10-31T13:38:21;15.30;;;7.57;;
3873;SDS011;1952;50.872;6.692;2022-10-31T13:41:02;9.03;;;7.20;;
3873;SDS011;1952;50.872;6.692;2022-10-31T13:43:44;8.60;;;6.50;;
3873;SDS011;1952;50.872;6.692;2022-10-31T13:46:34;11.73;;;6.80;;
3873;SDS011;1952;50.872;6.692;2022-10-31T13:49:23;7.57;;;6.67;;
3873;SDS011;1952;50.872;6.692;2022-10-31T13:52:16;10.50;;;7.47;;
3873;SDS011;1952;50.872;6.692;2022-10-31T13:55:02;10.80;;;7.00;;
3873;SDS011;1952;50.872;6.692;2022-10-31T13:57:31;8.00;;;6.83;;
3873;SDS011;1952;50.872;6.692;2022-10-31T14:00:22;8.83;;;6.53;;
3873;SDS011;1952;50.872;6.692;2022-10-31T14:02:52;8.80;;;6.60;;
3873;SDS011;1952;50.872;6.692;2022-10-31T14:05:23;9.33;;;6.70;;
3873;SDS011;1952;50.872;6.692;2022-10-31T14:07:53;9.90;;;7.07;;
3873;SDS011;1952;50.872;6.692;2022-10-31T14:10:24;8.27;;;6.43;;
3873;SDS011;1952;50.872;6.692;2022-10-31T14:13:04;10.43;;;6.27;;
3873;SDS011;1952;50.872;6.692;2022-10-31T14:15:42;7.53;;;6.83;;
3873;SDS011;1952;50.872;6.692;2022-10-31T14:18:21;8.50;;;6.37;;
3873;SDS011;1952;50.872;6.692;2022-10-31T14:20:51;11.33;;;6.70;;
3873;SDS011;1952;50.872;6.692;2022-10-31T14:26:31;7.73;;;6.60;;
3873;SDS011;1952;50.872;6.692;2022-10-31T14:29:00;10.03;;;5.70;;
3873;SDS011;1952;50.872;6.692;2022-10-31T14:31:34;7.83;;;5.67;;
3873;SDS011;1952;50.872;6.692;2022-10-31T14:36:55;8.83;;;6.13;;
3873;SDS011;1952;50.872;6.692;2022-10-31T14:39:35;10.33;;;6.37;;
3873;SDS011;1952;50.872;6.692;2022-10-31T14:42:13;9.60;;;6.37;;
3873;SDS011;1952;50.872;6.692;2022-10-31T14:44:56;11.43;;;5.90;;
3873;SDS011;1952;50.872;6.692;2022-10-31T14:47:44;8.23;;;5.77;;
3873;SDS011;1952;50.872;6.692;2022-10-31T14:50:24;9.40;;;6.03;;
3873;SDS011;1952;50.872;6.692;2022-10-31T14:53:13;8.33;;;6.37;;
3873;SDS011;1952;50.872;6.692;2022-10-31T14:55:52;10.37;;;5.87;;
3873;SDS011;1952;50.872;6.692;2022-10-31T14:58:22;7.87;;;5.70;;
3873;SDS011;1952;50.872;6.692;2022-10-31T15:00:55;9.60;;;5.60;;
3873;SDS011;1952;50.872;6.692;2022-10-31T15:03:26;7.63;;;5.80;;
3873;SDS011;1952;50.872;6.692;2022-10-31T15:05:59;6.40;;;5.43;;
3873;SDS011;1952;50.872;6.692;2022-10-31T15:08:34;10.27;;;5.83;;
3873;SDS011;1952;50.872;6.692;2022-10-31T15:11:09;7.13;;;5.83;;
3873;SDS011;1952;50.872;6.692;2022-10-31T15:13:42;9.60;;;5.33;;
3873;SDS011;1952;50.872;6.692;2022-10-31T15:16:12;6.87;;;5.13;;
3873;SDS011;1952;50.872;6.692;2022-10-31T15:18:49;10.87;;;6.20;;
3873;SDS011;1952;50.872;6.692;2022-10-31T15:21:21;6.37;;;5.77;;
3873;SDS011;1952;50.872;6.692;2022-10-31T15:23:56;8.90;;;6.50;;
3873;SDS011;1952;50.872;6.692;2022-10-31T15:26:27;6.97;;;6.30;;
3873;SDS011;1952;50.872;6.692;2022-10-31T15:29:00;7.60;;;5.90;;
3873;SDS011;1952;50.872;6.692;2022-10-31T15:31:34;11.97;;;6.03;;
3873;SDS011;1952;50.872;6.692;2022-10-31T15:34:13;9.03;;;5.37;;
3873;SDS011;1952;50.872;6.692;2022-10-31T15:36:47;7.00;;;5.70;;
3873;SDS011;1952;50.872;6.692;2022-10-31T15:39:16;7.27;;;6.27;;
3873;SDS011;1952;50.872;6.692;2022-10-31T15:41:50;8.87;;;5.83;;
3873;SDS011;1952;50.872;6.692;2022-10-31T15:44:21;7.60;;;5.70;;
3873;SDS011;1952;50.872;6.692;2022-10-31T15:46:52;6.87;;;5.60;;
3873;SDS011;1952;50.872;6.692;2022-10-31T15:49:27;10.47;;;5.93;;
3873;SDS011;1952;50.872;6.692;2022-10-31T15:52:03;11.90;;;8.17;;
3873;SDS011;1952;50.872;6.692;2022-10-31T15:54:44;7.93;;;7.13;;
3873;SDS011;1952;50.872;6.692;2022-10-31T15:57:19;7.17;;;6.03;;
3873;SDS011;1952;50.872;6.692;2022-10-31T15:59:48;7.23;;;5.80;;
3873;SDS011;1952;50.872;6.692;2022-10-31T16:02:22;7.87;;;5.70;;
3873;SDS011;1952;50.872;6.692;2022-10-31T16:04:54;9.40;;;8.10;;
3873;SDS011;1952;50.872;6.692;2022-10-31T16:07:27;8.20;;;6.33;;
3873;SDS011;1952;50.872;6.692;2022-10-31T16:09:59;10.13;;;7.50;;
3873;SDS011;1952;50.872;6.692;2022-10-31T16:12:31;10.13;;;5.10;;
3873;SDS011;1952;50.872;6.692;2022-10-31T16:15:13;11.80;;;5.97;;
3873;SDS011;1952;50.872;6.692;2022-10-31T16:17:42;5.73;;;5.23;;
3873;SDS011;1952;50.872;6.692;2022-10-31T16:20:20;6.63;;;5.80;;
3873;SDS011;1952;50.872;6.692;2022-10-31T16:22:56;10.80;;;5.70;;
3873;SDS011;1952;50.872;6.692;2022-10-31T16:25:34;7.73;;;6.93;;
3873;SDS011;1952;50.872;6.692;2022-10-31T16:28:13;9.53;;;5.33;;
3873;SDS011;1952;50.872;6.692;2022-10-31T16:30:48;6.63;;;5.90;;
3873;SDS011;1952;50.872;6.692;2022-10-31T16:33:22;5.70;;;4.77;;
3873;SDS011;1952;50.872;6.692;2022-10-31T16:35:54;6.23;;;5.63;;
3873;SDS011;1952;50.872;6.692;2022-10-31T16:38:23;14.07;;;6.10;;
3873;SDS011;1952;50.872;6.692;2022-10-31T16:40:56;8.73;;;5.90;;
3873;SDS011;1952;50.872;6.692;2022-10-31T16:43:30;8.93;;;5.37;;
3873;SDS011;1952;50.872;6.692;2022-10-31T16:45:58;10.97;;;5.80;;
3873;SDS011;1952;50.872;6.692;2022-10-31T16:48:26;9.83;;;6.47;;
3873;SDS011;1952;50.872;6.692;2022-10-31T16:50:56;11.03;;;6.00;;
3873;SDS011;1952;50.872;6.692;2022-10-31T16:53:28;11.83;;;5.50;;
3873;SDS011;1952;50.872;6.692;2022-10-31T16:55:57;7.93;;;6.50;;
3873;SDS011;1952;50.872;6.692;2022-10-31T16:58:32;5.80;;;5.20;;
3873;SDS011;1952;50.872;6.692;2022-10-31T17:01:07;7.80;;;5.73;;
3873;SDS011;1952;50.872;6.692;2022-10-31T17:03:35;8.20;;;6.27;;
3873;SDS011;1952;50.872;6.692;2022-10-31T17:06:04;11.43;;;6.87;;
3873;SDS011;1952;50.872;6.692;2022-10-31T17:08:37;9.30;;;6.33;;
3873;SDS011;1952;50.872;6.692;2022-10-31T17:11:15;11.07;;;6.50;;
3873;SDS011;1952;50.872;6.692;2022-10-31T17:13:45;12.93;;;6.60;;
3873;SDS011;1952;50.872;6.692;2022-10-31T17:16:14;8.27;;;6.53;;
3873;SDS011;1952;50.872;6.692;2022-10-31T17:18:47;7.30;;;6.40;;
3873;SDS011;1952;50.872;6.692;2022-10-31T17:21:22;8.63;;;6.20;;
3873;SDS011;1952;50.872;6.692;2022-10-31T17:23:57;10.97;;;6.70;;
3873;SDS011;1952;50.872;6.692;2022-10-31T17:26:26;12.07;;;6.07;;
3873;SDS011;1952;50.872;6.692;2022-10-31T17:28:54;8.00;;;5.13;;
3873;SDS011;1952;50.872;6.692;2022-10-31T17:31:27;7.53;;;6.33;;
3873;SDS011;1952;50.872;6.692;2022-10-31T17:33:57;11.77;;;6.50;;
3873;SDS011;1952;50.872;6.692;2022-10-31T17:36:30;7.83;;;6.90;;
3873;SDS011;1952;50.872;6.692;2022-10-31T17:39:04;7.93;;;5.87;;
3873;SDS011;1952;50.872;6.692;2022-10-31T17:41:34;7.70;;;6.67;;
3873;SDS011;1952;50.872;6.692;2022-10-31T17:44:03;10.93;;;7.07;;
3873;SDS011;1952;50.872;6.692;2022-10-31T17:46:36;9.53;;;6.10;;
3873;SDS011;1952;50.872;6.692;2022-10-31T17:49:05;11.43;;;7.43;;
3873;SDS011;1952;50.872;6.692;2022-10-31T17:51:35;11.37;;;5.97;;
3873;SDS011;1952;50.872;6.692;2022-10-31T18:35:21;7.63;;;6.80;;
3873;SDS011;1952;50.872;6.692;2022-10-31T18:37:49;11.20;;;6.93;;